sensor_id;sensor_type;location;lat;lon;timestamp;pressure;altitude;pressure_sealevel;temperature;humidity
20860;BME280;10590;48.154;11.514;2024-03-02T00:03:25;94657.25;;;5.47;100.00
20860;BME280;10590;48.154;11.514;2024-03-02T00:08:48;94653.19;;;5.97;100.00
20860;BME280;10590;48.154;11.514;2024-03-02T00:14:11;94653.09;;;6.20;99.41
20860;BME280;10590;48.154;11.514;2024-03-02T00:19:33;94651.38;;;6.15;99.11
20860;BME280;10590;48.154;11.514;2024-03-02T00:24:56;94642.81;;;6.18;99.07
20860;BME280;10590;48.154;11.514;2024-03-02T00:30:40;94636.81;;;5.87;99.86
20860;BME280;10590;48.154;11.514;2024-03-02T00:36:06;94634.31;;;5.82;100.00
20860;BME280;10590;48.154;11.514;2024-03-02T00:41:31;94637.84;;;5.60;100.00
20860;BME280;10590;48.154;11.514;2024-03-02T00:46:53;94600.84;;;5.29;100.00
20860;BME280;10590;48.154;11.514;2024-03-02T00:52:15;94614.25;;;5.32;100.00
20860;BME280;10590;48.154;11.514;2024-03-02T00:57:38;94607.84;;;5.25;100.00
20860;BME280;10590;48.154;11.514;2024-03-02T01:02:59;94625.22;;;5.57;100.00
20860;BME280;10590;48.154;11.514;2024-03-02T01:08:21;94640.78;;;5.58;100.00
20860;BME280;10590;48.154;11.514;2024-03-02T01:13:44;94641.91;;;5.66;100.00
20860;BME280;10590;48.154;11.514;2024-03-02T01:19:06;94638.88;;;5.41;100.00
20860;BME280;10590;48.154;11.514;2024-03-02T01:24:28;94637.19;;;5.54;100.00
20860;BME280;10590;48.154;11.514;2024-03-02T01:29:51;94628.81;;;5.69;99.85
20860;BME280;10590;48.154;11.514;2024-03-02T01:35:12;94629.69;;;5.48;99.99
20860;BME280;10590;48.154;11.514;2024-03-02T01:40:36;94627.38;;;5.46;100.00
20860;BME280;10590;48.154;11.514;2024-03-02T01:45:59;94635.22;;;5.68;98.71
20860;BME280;10590;48.154;11.514;2024-03-02T01:51:21;94633.59;;;5.50;100.00
20860;BME280;10590;48.154;11.514;2024-03-02T01:56:42;94623.91;;;5.37;100.00
20860;BME280;10590;48.154;11.514;2024-03-02T02:02:10;94613.88;;;5.73;99.79
20860;BME280;10590;48.154;11.514;2024-03-02T02:07:35;94603.00;;;5.84;98.35
20860;BME280;10590;48.154;11.514;2024-03-02T02:12:56;94598.78;;;5.65;99.12
20860;BME280;10590;48.154;11.514;2024-03-02T02:18:20;94598.63;;;5.70;97.85
20860;BME280;10590;48.154;11.514;2024-03-02T02:23:43;94597.38;;;5.76;97.68
20860;BME280;10590;48.154;11.514;2024-03-02T02:29:08;94594.59;;;5.82;97.59
20860;BME280;10590;48.154;11.514;2024-03-02T02:34:30;94598.53;;;5.93;97.50
20860;BME280;10590;48.154;11.514;2024-03-02T02:39:53;94605.69;;;6.01;97.47
20860;BME280;10590;48.154;11.514;2024-03-02T02:45:14;94595.72;;;5.98;97.14
20860;BME280;10590;48.154;11.514;2024-03-02T02:50:36;94604.31;;;6.03;97.01
20860;BME280;10590;48.154;11.514;2024-03-02T02:55:59;94601.84;;;6.07;96.96
20860;BME280;10590;48.154;11.514;2024-03-02T03:01:21;94604.91;;;6.00;97.50
20860;BME280;10590;48.154;11.514;2024-03-02T03:06:43;94603.69;;;6.06;97.98
20860;BME280;10590;48.154;11.514;2024-03-02T03:12:06;94610.72;;;6.11;97.20
20860;BME280;10590;48.154;11.514;2024-03-02T03:17:28;94602.34;;;5.69;100.00
20860;BME280;10590;48.154;11.514;2024-03-02T03:22:50;94617.22;;;5.39;100.00
20860;BME280;10590;48.154;11.514;2024-03-02T03:28:13;94602.84;;;5.89;100.00
20860;BME280;10590;48.154;11.514;2024-03-02T03:33:34;94600.38;;;5.27;100.00
20860;BME280;10590;48.154;11.514;2024-03-02T03:38:56;94602.97;;;5.66;100.00
20860;BME280;10590;48.154;11.514;2024-03-02T03:44:19;94609.91;;;5.36;100.00
20860;BME280;10590;48.154;11.514;2024-03-02T03:49:41;94596.50;;;5.33;100.00
20860;BME280;10590;48.154;11.514;2024-03-02T03:55:03;94599.63;;;5.35;100.00
20860;BME280;10590;48.154;11.514;2024-03-02T04:00:26;94601.91;;;5.85;100.00
20860;BME280;10590;48.154;11.514;2024-03-02T04:05:48;94598.84;;;6.00;98.61
20860;BME280;10590;48.154;11.514;2024-03-02T04:11:10;94614.09;;;5.94;100.00
20860;BME280;10590;48.154;11.514;2024-03-02T04:16:33;94597.91;;;5.96;98.32
20860;BME280;10590;48.154;11.514;2024-03-02T04:21:55;94619.19;;;5.82;99.61
20860;BME280;10590;48.154;11.514;2024-03-02T04:27:17;94631.59;;;6.13;97.88
20860;BME280;10590;48.154;11.514;2024-03-02T04:32:40;94637.00;;;5.99;98.96
20860;BME280;10590;48.154;11.514;2024-03-02T04:38:06;94644.00;;;5.95;99.38
20860;BME280;10590;48.154;11.514;2024-03-02T04:43:28;94647.28;;;6.00;99.25
20860;BME280;10590;48.154;11.514;2024-03-02T04:48:51;94654.31;;;6.05;99.14
20860;BME280;10590;48.154;11.514;2024-03-02T04:54:16;94654.06;;;5.84;99.75
20860;BME280;10590;48.154;11.514;2024-03-02T04:59:37;94654.84;;;5.85;100.00
20860;BME280;10590;48.154;11.514;2024-03-02T05:05:00;94667.28;;;5.75;100.00
20860;BME280;10590;48.154;11.514;2024-03-02T05:10:22;94664.00;;;6.10;98.85
20860;BME280;10590;48.154;11.514;2024-03-02T05:15:44;94663.00;;;5.97;99.03
20860;BME280;10590;48.154;11.514;2024-03-02T05:21:08;94663.78;;;5.97;99.36
20860;BME280;10590;48.154;11.514;2024-03-02T05:26:29;94622.13;;;5.72;99.61
20860;BME280;10590;48.154;11.514;2024-03-02T05:31:51;94644.72;;;5.69;100.00
20860;BME280;10590;48.154;11.514;2024-03-02T05:37:14;94666.38;;;5.80;100.00
20860;BME280;10590;48.154;11.514;2024-03-02T05:42:36;94660.97;;;5.94;100.00
20860;BME280;10590;48.154;11.514;2024-03-02T05:47:57;94680.59;;;5.93;99.94
20860;BME280;10590;48.154;11.514;2024-03-02T05:53:20;94667.84;;;5.95;100.00
20860;BME280;10590;48.154;11.514;2024-03-02T05:58:42;94672.00;;;5.87;99.81
20860;BME280;10590;48.154;11.514;2024-03-02T06:04:18;94668.69;;;5.73;99.86
20860;BME280;10590;48.154;11.514;2024-03-02T06:09:42;94670.09;;;5.70;100.00
20860;BME280;10590;48.154;11.514;2024-03-02T06:15:05;94676.59;;;5.64;100.00
20860;BME280;10590;48.154;11.514;2024-03-02T06:20:27;94673.09;;;5.38;100.00
20860;BME280;10590;48.154;11.514;2024-03-02T06:25:52;94668.50;;;5.21;100.00
20860;BME280;10590;48.154;11.514;2024-03-02T06:31:14;94673.94;;;5.56;100.00
20860;BME280;10590;48.154;11.514;2024-03-02T06:36:35;94667.13;;;5.72;100.00
20860;BME280;10590;48.154;11.514;2024-03-02T06:41:58;94680.72;;;5.88;99.98
20860;BME280;10590;48.154;11.514;2024-03-02T06:47:20;94673.81;;;5.69;100.00
20860;BME280;10590;48.154;11.514;2024-03-02T06:52:42;94679.31;;;5.42;100.00
20860;BME280;10590;48.154;11.514;2024-03-02T06:58:05;94658.00;;;5.38;100.00
20860;BME280;10590;48.154;11.514;2024-03-02T07:03:26;94670.81;;;6.02;99.63
20860;BME280;10590;48.154;11.514;2024-03-02T07:08:49;94648.41;;;6.08;98.07
20860;BME280;10590;48.154;11.514;2024-03-02T07:14:12;94664.16;;;6.39;96.24
20860;BME280;10590;48.154;11.514;2024-03-02T07:19:35;94651.38;;;6.32;95.41
20860;BME280;10590;48.154;11.514;2024-03-02T07:24:57;94654.34;;;6.57;95.10
20860;BME280;10590;48.154;11.514;2024-03-02T07:30:23;94658.00;;;7.63;88.96
20860;BME280;10590;48.154;11.514;2024-03-02T07:35:46;94664.66;;;9.23;81.11
20860;BME280;10590;48.154;11.514;2024-03-02T07:41:14;94666.84;;;11.52;68.13
20860;BME280;10590;48.154;11.514;2024-03-02T07:46:37;94688.78;;;11.89;66.69
20860;BME280;10590;48.154;11.514;2024-03-02T07:51:59;94646.09;;;10.73;71.28
20860;BME280;10590;48.154;11.514;2024-03-02T07:57:21;94685.50;;;11.95;66.25
20860;BME280;10590;48.154;11.514;2024-03-02T08:02:44;94690.41;;;9.89;73.41
20860;BME280;10590;48.154;11.514;2024-03-02T08:08:13;94696.19;;;12.27;65.16
20860;BME280;10590;48.154;11.514;2024-03-02T08:13:38;94676.00;;;13.64;59.07
20860;BME280;10590;48.154;11.514;2024-03-02T08:19:07;94675.00;;;13.50;58.73
20860;BME280;10590;48.154;11.514;2024-03-02T08:24:30;94681.03;;;14.94;52.95
20860;BME280;10590;48.154;11.514;2024-03-02T08:29:53;94683.28;;;14.10;53.47
20860;BME280;10590;48.154;11.514;2024-03-02T08:35:16;94692.25;;;14.44;56.10
20860;BME280;10590;48.154;11.514;2024-03-02T08:40:42;94699.78;;;15.21;52.74
20860;BME280;10590;48.154;11.514;2024-03-02T08:46:05;94700.13;;;14.59;53.02
20860;BME280;10590;48.154;11.514;2024-03-02T08:51:28;94686.59;;;15.79;50.45
20860;BME280;10590;48.154;11.514;2024-03-02T08:56:50;94690.31;;;15.34;52.96
20860;BME280;10590;48.154;11.514;2024-03-02T09:02:12;94686.31;;;15.91;50.54
20860;BME280;10590;48.154;11.514;2024-03-02T09:07:36;94679.25;;;16.72;50.56
20860;BME280;10590;48.154;11.514;2024-03-02T09:12:59;94697.38;;;16.82;50.80
20860;BME280;10590;48.154;11.514;2024-03-02T09:18:24;94682.16;;;15.23;52.00
20860;BME280;10590;48.154;11.514;2024-03-02T09:23:47;94699.31;;;13.83;54.34
20860;BME280;10590;48.154;11.514;2024-03-02T09:29:09;94698.06;;;13.35;59.15
20860;BME280;10590;48.154;11.514;2024-03-02T09:34:31;94693.50;;;14.27;57.43
20860;BME280;10590;48.154;11.514;2024-03-02T09:39:56;94685.56;;;14.34;57.59
20860;BME280;10590;48.154;11.514;2024-03-02T09:45:22;94687.47;;;12.30;63.43
20860;BME280;10590;48.154;11.514;2024-03-02T09:50:51;94689.91;;;11.28;66.08
20860;BME280;10590;48.154;11.514;2024-03-02T09:56:14;94671.50;;;11.39;64.40
20860;BME280;10590;48.154;11.514;2024-03-02T10:01:38;94672.81;;;11.17;63.87
20860;BME280;10590;48.154;11.514;2024-03-02T10:07:11;94672.38;;;12.57;60.70
20860;BME280;10590;48.154;11.514;2024-03-02T10:18:29;94655.31;;;14.63;54.98
20860;BME280;10590;48.154;11.514;2024-03-02T10:23:52;94677.50;;;13.62;59.59
20860;BME280;10590;48.154;11.514;2024-03-02T10:29:18;94662.66;;;11.98;62.57
20860;BME280;10590;48.154;11.514;2024-03-02T10:34:44;94663.13;;;11.40;62.56
20860;BME280;10590;48.154;11.514;2024-03-02T10:40:07;94649.59;;;13.01;59.96
20860;BME280;10590;48.154;11.514;2024-03-02T10:45:31;94652.19;;;12.08;66.67
20860;BME280;10590;48.154;11.514;2024-03-02T10:51:02;94640.97;;;12.92;57.79
20860;BME280;10590;48.154;11.514;2024-03-02T10:56:29;94619.34;;;13.89;56.42
20860;BME280;10590;48.154;11.514;2024-03-02T11:01:58;94625.41;;;14.09;54.21
20860;BME280;10590;48.154;11.514;2024-03-02T11:07:27;94623.53;;;13.41;55.90
20860;BME280;10590;48.154;11.514;2024-03-02T11:12:54;94608.03;;;15.59;51.37
20860;BME280;10590;48.154;11.514;2024-03-02T11:18:21;94575.56;;;15.42;51.21
20860;BME280;10590;48.154;11.514;2024-03-02T11:43:26;94569.59;;;13.91;55.92
20860;BME280;10590;48.154;11.514;2024-03-02T11:49:15;94547.78;;;14.53;55.37
20860;BME280;10590;48.154;11.514;2024-03-02T11:55:26;94532.44;;;13.93;55.87
20860;BME280;10590;48.154;11.514;2024-03-02T12:00:52;94516.63;;;14.15;54.84
20860;BME280;10590;48.154;11.514;2024-03-02T12:06:22;94530.50;;;14.20;56.47
20860;BME280;10590;48.154;11.514;2024-03-02T12:11:46;94530.47;;;13.64;57.35
20860;BME280;10590;48.154;11.514;2024-03-02T12:17:23;94516.16;;;13.07;58.79
20860;BME280;10590;48.154;11.514;2024-03-02T12:22:52;94490.63;;;14.86;53.06
20860;BME280;10590;48.154;11.514;2024-03-02T12:34:31;94484.94;;;15.93;52.87
20860;BME280;10590;48.154;11.514;2024-03-02T12:39:53;94468.31;;;15.26;54.22
20860;BME280;10590;48.154;11.514;2024-03-02T12:45:49;94483.84;;;13.42;59.72
20860;BME280;10590;48.154;11.514;2024-03-02T13:04:33;94450.50;;;12.71;62.40
20860;BME280;10590;48.154;11.514;2024-03-02T13:10:23;94455.19;;;13.76;60.63
20860;BME280;10590;48.154;11.514;2024-03-02T13:16:40;94426.06;;;14.38;57.25
20860;BME280;10590;48.154;11.514;2024-03-02T14:31:13;94372.31;;;13.64;58.44
20860;BME280;10590;48.154;11.514;2024-03-02T14:36:55;94354.66;;;12.54;60.47
20860;BME280;10590;48.154;11.514;2024-03-02T14:42:26;94336.25;;;12.26;60.93
20860;BME280;10590;48.154;11.514;2024-03-02T15:01:15;94346.81;;;11.99;61.65
20860;BME280;10590;48.154;11.514;2024-03-02T15:06:54;94345.00;;;12.03;62.36
20860;BME280;10590;48.154;11.514;2024-03-02T15:30:33;94343.75;;;11.78;64.64
20860;BME280;10590;48.154;11.514;2024-03-02T15:36:42;94349.97;;;12.05;64.79
20860;BME280;10590;48.154;11.514;2024-03-02T15:48:49;94333.00;;;11.36;67.21
20860;BME280;10590;48.154;11.514;2024-03-02T15:54:27;94351.22;;;11.88;66.32
20860;BME280;10590;48.154;11.514;2024-03-02T16:00:12;94321.22;;;11.21;68.27
20860;BME280;10590;48.154;11.514;2024-03-02T16:05:50;94316.50;;;10.95;69.72
20860;BME280;10590;48.154;11.514;2024-03-02T16:11:47;94330.53;;;10.92;70.80
20860;BME280;10590;48.154;11.514;2024-03-02T16:24:17;94336.09;;;10.68;73.65
20860;BME280;10590;48.154;11.514;2024-03-02T16:30:21;94311.22;;;10.16;75.37
20860;BME280;10590;48.154;11.514;2024-03-02T16:36:52;94303.63;;;10.18;75.94
20860;BME280;10590;48.154;11.514;2024-03-02T16:42:06;94324.97;;;10.18;76.58
20860;BME280;10590;48.154;11.514;2024-03-02T16:47:31;94316.09;;;9.99;77.16
20860;BME280;10590;48.154;11.514;2024-03-02T16:58:55;94318.09;;;9.58;79.55
20860;BME280;10590;48.154;11.514;2024-03-02T17:04:20;94335.63;;;9.59;80.14
20860;BME280;10590;48.154;11.514;2024-03-02T17:09:44;94319.59;;;9.43;80.43
20860;BME280;10590;48.154;11.514;2024-03-02T17:15:10;94327.38;;;9.36;80.60
20860;BME280;10590;48.154;11.514;2024-03-02T17:20:32;94313.50;;;9.03;81.76
20860;BME280;10590;48.154;11.514;2024-03-02T17:25:53;94356.41;;;9.41;81.11
20860;BME280;10590;48.154;11.514;2024-03-02T17:31:17;94355.53;;;9.37;81.26
20860;BME280;10590;48.154;11.514;2024-03-02T17:36:38;94325.66;;;8.76;83.87
20860;BME280;10590;48.154;11.514;2024-03-02T17:42:00;94352.50;;;9.11;82.77
20860;BME280;10590;48.154;11.514;2024-03-02T17:47:24;94333.25;;;9.02;83.41
20860;BME280;10590;48.154;11.514;2024-03-02T17:52:46;94346.13;;;8.87;84.87
20860;BME280;10590;48.154;11.514;2024-03-02T17:58:08;94335.94;;;8.89;84.44
20860;BME280;10590;48.154;11.514;2024-03-02T18:03:32;94326.84;;;8.66;85.41
20860;BME280;10590;48.154;11.514;2024-03-02T18:08:54;94341.91;;;8.62;87.00
20860;BME280;10590;48.154;11.514;2024-03-02T18:14:16;94350.16;;;8.69;86.31
20860;BME280;10590;48.154;11.514;2024-03-02T18:19:39;94313.91;;;8.40;87.42
20860;BME280;10590;48.154;11.514;2024-03-02T18:25:01;94317.91;;;8.34;87.07
20860;BME280;10590;48.154;11.514;2024-03-02T18:30:23;94344.69;;;8.53;87.12
20860;BME280;10590;48.154;11.514;2024-03-02T18:35:46;94338.25;;;8.30;88.21
20860;BME280;10590;48.154;11.514;2024-03-02T18:41:08;94332.25;;;8.21;87.58
20860;BME280;10590;48.154;11.514;2024-03-02T18:46:30;94308.88;;;8.02;87.98
20860;BME280;10590;48.154;11.514;2024-03-02T18:51:53;94341.22;;;8.16;88.12
20860;BME280;10590;48.154;11.514;2024-03-02T18:57:15;94321.16;;;8.07;87.63
20860;BME280;10590;48.154;11.514;2024-03-02T19:02:37;94311.53;;;8.02;87.55
20860;BME280;10590;48.154;11.514;2024-03-02T19:08:00;94319.50;;;8.02;87.45
20860;BME280;10590;48.154;11.514;2024-03-02T19:13:22;94323.16;;;7.97;87.35
20860;BME280;10590;48.154;11.514;2024-03-02T19:18:44;94335.00;;;8.00;87.87
20860;BME280;10590;48.154;11.514;2024-03-02T19:24:08;94323.91;;;7.86;87.69
20860;BME280;10590;48.154;11.514;2024-03-02T19:29:30;94326.25;;;7.99;87.00
20860;BME280;10590;48.154;11.514;2024-03-02T19:34:51;94331.03;;;8.06;87.09
20860;BME280;10590;48.154;11.514;2024-03-02T19:40:15;94313.09;;;8.15;85.67
20860;BME280;10590;48.154;11.514;2024-03-02T19:45:37;94291.63;;;8.08;85.23
20860;BME280;10590;48.154;11.514;2024-03-02T19:50:59;94292.78;;;7.74;87.00
20860;BME280;10590;48.154;11.514;2024-03-02T19:56:22;94302.78;;;7.89;87.32
20860;BME280;10590;48.154;11.514;2024-03-02T20:14:20;94288.88;;;7.59;89.47
20860;BME280;10590;48.154;11.514;2024-03-02T20:19:44;94273.03;;;7.51;90.55
20860;BME280;10590;48.154;11.514;2024-03-02T20:25:12;94259.78;;;7.18;91.11
20860;BME280;10590;48.154;11.514;2024-03-02T20:30:40;94258.53;;;7.48;89.57
20860;BME280;10590;48.154;11.514;2024-03-02T20:36:11;94238.72;;;7.00;91.25
20860;BME280;10590;48.154;11.514;2024-03-02T20:41:39;94241.38;;;7.33;89.90
20860;BME280;10590;48.154;11.514;2024-03-02T20:47:07;94260.19;;;7.41;90.78
20860;BME280;10590;48.154;11.514;2024-03-02T20:59:06;94257.84;;;6.85;94.20
20860;BME280;10590;48.154;11.514;2024-03-02T21:04:52;94200.81;;;7.00;91.54
20860;BME280;10590;48.154;11.514;2024-03-02T21:10:43;94200.94;;;6.83;90.93
20860;BME280;10590;48.154;11.514;2024-03-02T21:35:05;94196.72;;;6.49;95.62
20860;BME280;10590;48.154;11.514;2024-03-02T21:40:40;94215.13;;;6.66;94.60
20860;BME280;10590;48.154;11.514;2024-03-02T22:07:20;94175.25;;;6.42;95.08
20860;BME280;10590;48.154;11.514;2024-03-02T22:12:48;94194.91;;;6.61;94.43
20860;BME280;10590;48.154;11.514;2024-03-02T22:18:10;94186.16;;;6.61;92.60
20860;BME280;10590;48.154;11.514;2024-03-02T22:23:36;94195.28;;;6.51;92.80
20860;BME280;10590;48.154;11.514;2024-03-02T22:28:58;94184.81;;;6.13;94.08
20860;BME280;10590;48.154;11.514;2024-03-02T22:34:20;94178.88;;;6.37;92.63
20860;BME280;10590;48.154;11.514;2024-03-02T22:39:47;94199.69;;;5.88;97.42
20860;BME280;10590;48.154;11.514;2024-03-02T22:45:09;94157.56;;;5.45;98.20
20860;BME280;10590;48.154;11.514;2024-03-02T22:50:31;94164.06;;;5.86;97.49
20860;BME280;10590;48.154;11.514;2024-03-02T22:55:54;94194.91;;;5.82;97.29
20860;BME280;10590;48.154;11.514;2024-03-02T23:01:16;94192.16;;;5.69;99.33
20860;BME280;10590;48.154;11.514;2024-03-02T23:06:47;94206.41;;;5.86;97.38
20860;BME280;10590;48.154;11.514;2024-03-02T23:12:13;94207.03;;;5.91;96.92
20860;BME280;10590;48.154;11.514;2024-03-02T23:17:35;94190.75;;;5.72;97.62
20860;BME280;10590;48.154;11.514;2024-03-02T23:22:57;94192.44;;;5.76;97.94
20860;BME280;10590;48.154;11.514;2024-03-02T23:28:24;94199.16;;;5.74;97.98
20860;BME280;10590;48.154;11.514;2024-03-02T23:33:47;94159.94;;;5.38;99.87
20860;BME280;10590;48.154;11.514;2024-03-02T23:39:09;94189.69;;;5.64;99.14
20860;BME280;10590;48.154;11.514;2024-03-02T23:44:33;94173.41;;;5.54;99.41
20860;BME280;10590;48.154;11.514;2024-03-02T23:49:54;94182.72;;;5.60;98.02
20860;BME280;10590;48.154;11.514;2024-03-02T23:55:16;94169.56;;;5.42;98.64
